Авиационная погода в Констанце

Регион: 
Погода METAR: 
LRCK 290100Z 34004KT 1500 BR NSC 11/11 Q1016 NOSIG
Время наблюдения
2020-10-29T01:00:00Z
Температура C
11.0
Точка росы
11.0
Направление ветра
340
Скорость ветра (узлы)
4
Метео видимость
0.93
Явления погоды
BR
Условия полета
LIFR